sensor_id;sensor_type;location;lat;lon;timestamp;P1;durP1;ratioP1;P2;durP2;ratioP2
52438;SDS011;38359;53.150;6.504;2023-06-10T00:10:01;13.48;;;6.68;;
52438;SDS011;38359;53.150;6.504;2023-06-10T00:20:30;16.20;;;6.63;;
52438;SDS011;38359;53.150;6.504;2023-06-10T00:30:56;17.10;;;6.65;;
52438;SDS011;38359;53.150;6.504;2023-06-10T00:41:22;16.65;;;6.82;;
52438;SDS011;38359;53.150;6.504;2023-06-10T00:51:48;21.23;;;6.13;;
52438;SDS011;38359;53.150;6.504;2023-06-10T01:02:15;16.60;;;7.20;;
52438;SDS011;38359;53.150;6.504;2023-06-10T01:12:46;18.67;;;6.93;;
52438;SDS011;38359;53.150;6.504;2023-06-10T01:23:31;18.02;;;7.35;;
52438;SDS011;38359;53.150;6.504;2023-06-10T01:33:57;12.57;;;6.55;;
52438;SDS011;38359;53.150;6.504;2023-06-10T01:44:23;21.38;;;8.60;;
52438;SDS011;38359;53.150;6.504;2023-06-10T01:54:49;17.45;;;9.20;;
52438;SDS011;38359;53.150;6.504;2023-06-10T02:05:15;17.20;;;8.90;;
52438;SDS011;38359;53.150;6.504;2023-06-10T02:15:41;23.55;;;10.05;;
52438;SDS011;38359;53.150;6.504;2023-06-10T02:26:06;15.30;;;7.47;;
52438;SDS011;38359;53.150;6.504;2023-06-10T02:36:32;19.20;;;6.85;;
52438;SDS011;38359;53.150;6.504;2023-06-10T02:47:00;19.38;;;6.78;;
52438;SDS011;38359;53.150;6.504;2023-06-10T02:57:26;11.40;;;5.70;;
52438;SDS011;38359;53.150;6.504;2023-06-10T03:07:52;22.88;;;6.88;;
52438;SDS011;38359;53.150;6.504;2023-06-10T03:18:18;13.65;;;6.05;;
52438;SDS011;38359;53.150;6.504;2023-06-10T03:28:43;16.80;;;6.25;;
52438;SDS011;38359;53.150;6.504;2023-06-10T03:39:10;20.73;;;7.00;;
52438;SDS011;38359;53.150;6.504;2023-06-10T03:49:36;16.08;;;8.00;;
52438;SDS011;38359;53.150;6.504;2023-06-10T04:00:01;21.35;;;10.32;;
52438;SDS011;38359;53.150;6.504;2023-06-10T04:10:33;22.50;;;9.25;;
52438;SDS011;38359;53.150;6.504;2023-06-10T04:20:59;20.55;;;7.15;;
52438;SDS011;38359;53.150;6.504;2023-06-10T04:31:25;21.85;;;7.82;;
52438;SDS011;38359;53.150;6.504;2023-06-10T04:41:51;20.05;;;7.35;;
52438;SDS011;38359;53.150;6.504;2023-06-10T04:52:17;22.08;;;6.88;;
52438;SDS011;38359;53.150;6.504;2023-06-10T05:02:43;22.25;;;7.78;;
52438;SDS011;38359;53.150;6.504;2023-06-10T05:13:09;14.10;;;6.72;;
52438;SDS011;38359;53.150;6.504;2023-06-10T05:23:35;16.90;;;7.10;;
52438;SDS011;38359;53.150;6.504;2023-06-10T05:34:01;19.05;;;7.75;;
52438;SDS011;38359;53.150;6.504;2023-06-10T05:44:27;19.73;;;8.13;;
52438;SDS011;38359;53.150;6.504;2023-06-10T05:54:53;20.52;;;7.72;;
52438;SDS011;38359;53.150;6.504;2023-06-10T06:05:19;16.13;;;7.00;;
52438;SDS011;38359;53.150;6.504;2023-06-10T06:15:45;18.27;;;7.75;;
52438;SDS011;38359;53.150;6.504;2023-06-10T06:26:11;23.13;;;8.25;;
52438;SDS011;38359;53.150;6.504;2023-06-10T06:36:36;21.50;;;8.00;;
52438;SDS011;38359;53.150;6.504;2023-06-10T06:47:02;16.08;;;6.63;;
52438;SDS011;38359;53.150;6.504;2023-06-10T06:57:28;20.42;;;7.05;;
52438;SDS011;38359;53.150;6.504;2023-06-10T07:07:54;15.45;;;6.47;;
52438;SDS011;38359;53.150;6.504;2023-06-10T07:18:21;19.45;;;6.15;;
52438;SDS011;38359;53.150;6.504;2023-06-10T07:28:46;15.45;;;6.28;;
52438;SDS011;38359;53.150;6.504;2023-06-10T07:39:12;16.85;;;5.65;;
52438;SDS011;38359;53.150;6.504;2023-06-10T07:49:38;18.73;;;5.65;;
52438;SDS011;38359;53.150;6.504;2023-06-10T08:00:05;12.48;;;5.93;;
52438;SDS011;38359;53.150;6.504;2023-06-10T08:10:31;18.95;;;6.55;;
52438;SDS011;38359;53.150;6.504;2023-06-10T08:20:57;14.00;;;5.57;;
52438;SDS011;38359;53.150;6.504;2023-06-10T08:31:23;13.30;;;5.15;;
52438;SDS011;38359;53.150;6.504;2023-06-10T08:42:00;10.93;;;5.10;;
52438;SDS011;38359;53.150;6.504;2023-06-10T08:52:42;15.32;;;4.53;;
52438;SDS011;38359;53.150;6.504;2023-06-10T09:03:09;9.55;;;4.38;;
52438;SDS011;38359;53.150;6.504;2023-06-10T09:13:35;22.27;;;4.97;;
52438;SDS011;38359;53.150;6.504;2023-06-10T09:24:01;15.73;;;4.37;;
52438;SDS011;38359;53.150;6.504;2023-06-10T09:34:27;17.25;;;4.60;;
52438;SDS011;38359;53.150;6.504;2023-06-10T09:44:54;9.88;;;4.55;;
52438;SDS011;38359;53.150;6.504;2023-06-10T09:55:23;12.07;;;4.40;;
52438;SDS011;38359;53.150;6.504;2023-06-10T10:05:49;10.07;;;4.70;;
52438;SDS011;38359;53.150;6.504;2023-06-10T10:16:15;10.40;;;4.15;;
52438;SDS011;38359;53.150;6.504;2023-06-10T10:37:13;10.48;;;3.70;;
52438;SDS011;38359;53.150;6.504;2023-06-10T10:47:39;8.90;;;3.63;;
52438;SDS011;38359;53.150;6.504;2023-06-10T10:58:07;9.20;;;3.80;;
52438;SDS011;38359;53.150;6.504;2023-06-10T11:19:00;9.60;;;3.73;;
52438;SDS011;38359;53.150;6.504;2023-06-10T11:29:25;12.00;;;4.18;;
52438;SDS011;38359;53.150;6.504;2023-06-10T11:39:54;10.77;;;3.90;;
52438;SDS011;38359;53.150;6.504;2023-06-10T11:50:28;9.02;;;3.40;;
52438;SDS011;38359;53.150;6.504;2023-06-10T12:00:57;9.65;;;4.03;;
52438;SDS011;38359;53.150;6.504;2023-06-10T12:11:23;7.40;;;3.92;;
52438;SDS011;38359;53.150;6.504;2023-06-10T12:21:49;9.75;;;3.25;;
52438;SDS011;38359;53.150;6.504;2023-06-10T12:32:15;12.43;;;4.03;;
52438;SDS011;38359;53.150;6.504;2023-06-10T12:42:41;12.30;;;3.28;;
52438;SDS011;38359;53.150;6.504;2023-06-10T12:53:09;9.45;;;3.67;;
52438;SDS011;38359;53.150;6.504;2023-06-10T13:03:37;9.00;;;3.70;;
52438;SDS011;38359;53.150;6.504;2023-06-10T13:14:04;9.50;;;3.75;;
52438;SDS011;38359;53.150;6.504;2023-06-10T13:24:31;12.30;;;3.90;;
52438;SDS011;38359;53.150;6.504;2023-06-10T13:34:57;10.10;;;4.13;;
52438;SDS011;38359;53.150;6.504;2023-06-10T13:45:22;10.57;;;3.00;;
52438;SDS011;38359;53.150;6.504;2023-06-10T13:55:49;6.05;;;2.90;;
52438;SDS011;38359;53.150;6.504;2023-06-10T14:06:15;7.95;;;2.90;;
52438;SDS011;38359;53.150;6.504;2023-06-10T14:16:43;10.80;;;2.70;;
52438;SDS011;38359;53.150;6.504;2023-06-10T14:27:09;5.67;;;2.43;;
52438;SDS011;38359;53.150;6.504;2023-06-10T14:37:35;6.57;;;2.70;;
52438;SDS011;38359;53.150;6.504;2023-06-10T14:48:01;7.07;;;3.15;;
52438;SDS011;38359;53.150;6.504;2023-06-10T14:58:27;10.15;;;2.58;;
52438;SDS011;38359;53.150;6.504;2023-06-10T15:08:53;10.83;;;2.77;;
52438;SDS011;38359;53.150;6.504;2023-06-10T15:19:19;20.13;;;2.80;;
52438;SDS011;38359;53.150;6.504;2023-06-10T15:29:45;11.88;;;2.75;;
52438;SDS011;38359;53.150;6.504;2023-06-10T15:40:10;14.00;;;2.40;;
52438;SDS011;38359;53.150;6.504;2023-06-10T15:50:36;8.40;;;2.63;;
52438;SDS011;38359;53.150;6.504;2023-06-10T16:01:03;5.65;;;2.22;;
52438;SDS011;38359;53.150;6.504;2023-06-10T16:11:29;7.67;;;2.27;;
52438;SDS011;38359;53.150;6.504;2023-06-10T16:21:55;5.27;;;2.40;;
52438;SDS011;38359;53.150;6.504;2023-06-10T16:32:21;10.67;;;2.60;;
52438;SDS011;38359;53.150;6.504;2023-06-10T16:53:12;5.77;;;2.33;;
52438;SDS011;38359;53.150;6.504;2023-06-10T17:14:04;4.67;;;2.20;;
52438;SDS011;38359;53.150;6.504;2023-06-10T17:34:56;15.57;;;2.40;;
52438;SDS011;38359;53.150;6.504;2023-06-10T17:55:47;7.20;;;2.67;;
52438;SDS011;38359;53.150;6.504;2023-06-10T18:06:13;9.00;;;2.90;;
52438;SDS011;38359;53.150;6.504;2023-06-10T18:16:39;10.88;;;3.63;;
52438;SDS011;38359;53.150;6.504;2023-06-10T18:27:06;8.37;;;2.83;;
52438;SDS011;38359;53.150;6.504;2023-06-10T18:37:33;10.20;;;2.92;;
52438;SDS011;38359;53.150;6.504;2023-06-10T18:47:59;10.32;;;3.20;;
52438;SDS011;38359;53.150;6.504;2023-06-10T18:58:24;17.00;;;3.47;;
52438;SDS011;38359;53.150;6.504;2023-06-10T19:08:50;17.40;;;3.50;;
52438;SDS011;38359;53.150;6.504;2023-06-10T19:19:16;17.20;;;3.50;;
52438;SDS011;38359;53.150;6.504;2023-06-10T19:29:42;11.85;;;3.63;;
52438;SDS011;38359;53.150;6.504;2023-06-10T19:40:08;18.33;;;3.50;;
52438;SDS011;38359;53.150;6.504;2023-06-10T19:50:34;17.92;;;3.75;;
52438;SDS011;38359;53.150;6.504;2023-06-10T20:01:00;15.80;;;3.78;;
52438;SDS011;38359;53.150;6.504;2023-06-10T20:11:26;26.27;;;4.00;;
52438;SDS011;38359;53.150;6.504;2023-06-10T20:21:51;20.77;;;4.00;;
52438;SDS011;38359;53.150;6.504;2023-06-10T20:32:17;14.03;;;3.53;;
52438;SDS011;38359;53.150;6.504;2023-06-10T20:42:43;12.27;;;3.47;;
52438;SDS011;38359;53.150;6.504;2023-06-10T20:53:09;13.98;;;3.63;;
52438;SDS011;38359;53.150;6.504;2023-06-10T21:03:35;13.43;;;4.20;;
52438;SDS011;38359;53.150;6.504;2023-06-10T21:14:00;12.77;;;3.78;;
52438;SDS011;38359;53.150;6.504;2023-06-10T21:24:26;17.75;;;4.75;;
52438;SDS011;38359;53.150;6.504;2023-06-10T21:34:52;12.00;;;4.03;;
52438;SDS011;38359;53.150;6.504;2023-06-10T21:45:18;11.73;;;4.45;;
52438;SDS011;38359;53.150;6.504;2023-06-10T21:55:43;18.45;;;4.68;;
52438;SDS011;38359;53.150;6.504;2023-06-10T22:06:09;13.50;;;4.70;;
52438;SDS011;38359;53.150;6.504;2023-06-10T22:16:35;14.82;;;5.13;;
52438;SDS011;38359;53.150;6.504;2023-06-10T22:27:02;17.85;;;5.10;;
52438;SDS011;38359;53.150;6.504;2023-06-10T22:37:28;23.48;;;5.45;;
52438;SDS011;38359;53.150;6.504;2023-06-10T22:47:54;11.77;;;4.85;;
52438;SDS011;38359;53.150;6.504;2023-06-10T22:58:21;17.23;;;5.25;;
52438;SDS011;38359;53.150;6.504;2023-06-10T23:08:47;13.65;;;5.30;;
52438;SDS011;38359;53.150;6.504;2023-06-10T23:19:13;20.92;;;5.85;;
52438;SDS011;38359;53.150;6.504;2023-06-10T23:29:43;16.80;;;5.85;;
52438;SDS011;38359;53.150;6.504;2023-06-10T23:40:09;24.00;;;6.50;;
52438;SDS011;38359;53.150;6.504;2023-06-10T23:50:35;18.33;;;6.05;;
